createdAt,value
2017-11-09T00:02:16.152Z,54.00
2017-11-09T00:04:49.358Z,60.63
2017-11-09T00:07:17.006Z,62.58
2017-11-09T00:09:44.529Z,59.92
2017-11-09T00:12:12.088Z,62.17
2017-11-09T00:14:39.738Z,62.15
2017-11-09T00:17:07.252Z,59.75
2017-11-09T00:19:34.849Z,63.35
2017-11-09T00:22:02.529Z,60.60
2017-11-09T00:24:30.051Z,60.67
2017-11-09T00:26:57.553Z,52.88
2017-11-09T00:29:25.186Z,65.03
2017-11-09T00:31:53.531Z,61.13
2017-11-09T00:34:21.120Z,60.53
2017-11-09T00:36:48.770Z,55.92
2017-11-09T00:39:16.376Z,58.05
2017-11-09T00:41:44.022Z,57.47
2017-11-09T00:44:11.568Z,63.70
2017-11-09T00:46:39.256Z,55.58
2017-11-09T00:49:06.860Z,59.13
2017-11-09T00:51:34.469Z,59.28
2017-11-09T00:54:02.140Z,60.70
2017-11-09T00:56:29.745Z,55.12
2017-11-09T00:58:57.386Z,58.63
2017-11-09T01:01:25.123Z,63.20
2017-11-09T01:03:52.734Z,51.65
2017-11-09T01:06:20.289Z,66.07
2017-11-09T01:08:47.857Z,61.28
2017-11-09T01:11:15.458Z,61.08
2017-11-09T01:13:43.064Z,58.72
2017-11-09T01:16:11.545Z,58.97
2017-11-09T01:18:39.165Z,59.45
2017-11-09T01:21:06.746Z,53.80
2017-11-09T01:23:34.259Z,59.70
2017-11-09T01:26:01.776Z,54.75
2017-11-09T01:28:29.372Z,60.05
2017-11-09T01:30:56.988Z,61.97
2017-11-09T01:33:24.599Z,63.17
2017-11-09T01:35:52.282Z,58.55
2017-11-09T01:38:19.845Z,54.35
2017-11-09T01:40:47.547Z,61.97
2017-11-09T01:43:15.537Z,56.05
2017-11-09T01:45:43.193Z,60.92
2017-11-09T01:48:10.829Z,60.88
2017-11-09T01:50:38.489Z,56.40
2017-11-09T01:53:06.128Z,59.95
2017-11-09T01:55:33.768Z,63.42
2017-11-09T01:58:01.308Z,63.15
2017-11-09T02:00:28.998Z,57.50
2017-11-09T02:02:56.525Z,60.47
2017-11-09T02:05:24.133Z,58.85
2017-11-09T02:07:51.705Z,56.40
2017-11-09T02:10:19.268Z,55.75
2017-11-09T02:12:46.901Z,52.90
2017-11-09T02:15:14.539Z,58.10
2017-11-09T02:17:42.128Z,61.03
2017-11-09T02:20:09.671Z,53.58
2017-11-09T02:22:37.240Z,54.03
2017-11-09T02:25:04.858Z,53.72
2017-11-09T02:27:33.220Z,60.38
2017-11-09T02:30:00.844Z,58.45
2017-11-09T02:32:28.385Z,57.00
2017-11-09T02:34:55.968Z,57.97
2017-11-09T02:37:23.487Z,57.53
2017-11-09T02:39:51.795Z,63.95
2017-11-09T02:42:19.302Z,63.87
2017-11-09T02:44:46.806Z,61.90
2017-11-09T02:47:14.376Z,59.40
2017-11-09T02:49:41.910Z,64.62
2017-11-09T02:52:09.855Z,57.40
2017-11-09T02:54:38.311Z,60.35
2017-11-09T02:57:05.817Z,64.72
2017-11-09T02:59:33.389Z,56.10
2017-11-09T03:02:00.918Z,55.38
2017-11-09T03:04:29.239Z,56.00
2017-11-09T03:06:56.837Z,55.22
2017-11-09T03:09:24.364Z,62.08
2017-11-09T03:11:51.886Z,58.85
2017-11-09T03:14:19.522Z,66.03
2017-11-09T03:16:47.970Z,63.63
2017-11-09T03:19:15.567Z,63.35
2017-11-09T03:21:43.136Z,57.95
2017-11-09T03:24:10.665Z,61.22
2017-11-09T03:26:39.026Z,62.97
2017-11-09T03:29:06.678Z,64.18
2017-11-09T03:31:34.224Z,61.35
2017-11-09T03:34:01.763Z,54.75
2017-11-09T03:36:29.254Z,62.95
2017-11-09T03:38:56.771Z,65.15
2017-11-09T03:41:25.029Z,63.03
2017-11-09T03:43:52.528Z,59.35
2017-11-09T03:46:20.105Z,65.12
2017-11-09T03:48:47.703Z,59.97
2017-11-09T03:51:15.235Z,60.05
2017-11-09T03:53:42.852Z,57.03
2017-11-09T03:56:10.401Z,61.47
2017-11-09T03:58:37.962Z,64.12
2017-11-09T04:01:05.509Z,58.50
2017-11-09T04:03:33.193Z,62.78
2017-11-09T04:06:00.728Z,63.87
2017-11-09T04:08:28.208Z,57.67
2017-11-09T04:10:56.059Z,62.72
2017-11-09T04:13:23.650Z,63.28
2017-11-09T04:15:51.186Z,57.45
2017-11-09T04:18:19.636Z,65.70
2017-11-09T04:20:47.175Z,63.67
2017-11-09T04:23:15.691Z,63.60
2017-11-09T04:25:43.341Z,56.88
2017-11-09T04:28:11.766Z,61.40
2017-11-09T04:30:39.460Z,59.65
2017-11-09T04:33:07.373Z,61.53
2017-11-09T04:35:35.089Z,56.08
2017-11-09T04:38:02.635Z,62.20
2017-11-09T04:40:30.203Z,57.55
2017-11-09T04:42:57.759Z,54.08
2017-11-09T04:45:25.389Z,61.58
2017-11-09T04:47:53.021Z,71.12
2017-11-09T04:50:20.797Z,63.67
2017-11-09T04:52:48.558Z,67.05
2017-11-09T04:55:16.209Z,67.18
2017-11-09T04:57:45.480Z,66.65
2017-11-09T05:00:13.857Z,65.68
2017-11-09T05:02:41.523Z,64.97
2017-11-09T05:05:09.142Z,66.90
2017-11-09T05:07:36.939Z,65.00
2017-11-09T05:10:05.396Z,66.03
2017-11-09T05:12:33.116Z,69.18
2017-11-09T05:15:00.963Z,63.38
2017-11-09T05:17:32.464Z,61.33
2017-11-09T05:20:00.179Z,61.08
2017-11-09T05:22:27.946Z,66.82
2017-11-09T05:24:56.568Z,62.75
2017-11-09T05:27:24.278Z,66.10
2017-11-09T05:29:51.995Z,60.25
2017-11-09T05:32:19.747Z,56.00
2017-11-09T05:34:47.381Z,62.42
2017-11-09T05:39:54.570Z,73.22
2017-11-09T05:42:22.953Z,67.20
2017-11-09T05:44:51.384Z,72.53
2017-11-09T05:47:20.021Z,69.75
2017-11-09T05:49:47.678Z,68.00
2017-11-09T05:52:16.096Z,71.18
2017-11-09T05:54:43.755Z,57.85
2017-11-09T05:57:12.436Z,67.62
2017-11-09T05:59:41.432Z,60.22
2017-11-09T06:02:16.728Z,70.50
2017-11-09T06:04:44.684Z,61.78
2017-11-09T06:07:13.940Z,61.90
2017-11-09T06:23:30.549Z,65.35
2017-11-09T06:25:58.070Z,65.68
2017-11-09T06:28:25.636Z,63.53
2017-11-09T06:30:53.125Z,68.07
2017-11-09T06:33:21.703Z,61.75
2017-11-09T06:35:49.259Z,66.50
2017-11-09T06:38:16.847Z,67.60
2017-11-09T06:40:44.372Z,70.35
2017-11-09T06:43:11.998Z,72.40
2017-11-09T06:45:40.308Z,66.72
2017-11-09T06:48:07.936Z,68.12
2017-11-09T06:50:35.593Z,73.03
2017-11-09T06:53:03.214Z,69.22
2017-11-09T06:55:30.820Z,63.17
2017-11-09T06:58:01.466Z,73.43
2017-11-09T07:00:32.113Z,66.07
2017-11-09T07:03:00.407Z,64.43
2017-11-09T07:05:27.951Z,68.22
2017-11-09T07:07:55.562Z,67.90
2017-11-09T07:10:23.182Z,67.22
2017-11-09T07:12:50.871Z,65.62
2017-11-09T07:15:18.445Z,67.15
2017-11-09T07:17:46.128Z,72.80
2017-11-09T07:20:14.420Z,67.90
2017-11-09T07:22:42.137Z,65.95
2017-11-09T07:25:09.960Z,72.03
2017-11-09T07:27:39.820Z,61.97
2017-11-09T07:30:09.805Z,63.20
2017-11-09T07:32:37.907Z,67.93
2017-11-09T07:35:05.468Z,62.13
2017-11-09T07:37:33.529Z,64.47
2017-11-09T07:40:01.397Z,60.38
2017-11-09T07:42:29.149Z,64.75
2017-11-09T07:44:59.683Z,70.90
2017-11-09T07:47:27.203Z,65.70
2017-11-09T07:49:54.701Z,63.13
2017-11-09T07:52:22.290Z,63.25
2017-11-09T07:54:52.687Z,70.57
2017-11-09T07:57:20.209Z,65.40
2017-11-09T07:59:47.992Z,61.33
2017-11-09T08:02:16.176Z,58.17
2017-11-09T08:04:43.856Z,75.82
2017-11-09T08:07:11.489Z,67.47
2017-11-09T08:09:39.872Z,64.93
2017-11-09T08:12:07.496Z,70.70
2017-11-09T08:14:35.792Z,62.62
2017-11-09T08:17:03.412Z,63.55
2017-11-09T08:19:31.020Z,67.43
2017-11-09T08:21:58.548Z,64.70
2017-11-09T08:24:29.138Z,64.25
2017-11-09T08:26:57.159Z,71.72
2017-11-09T08:29:25.117Z,62.50
2017-11-09T08:31:53.047Z,65.07
2017-11-09T08:34:20.737Z,71.30
2017-11-09T08:36:48.379Z,62.08
2017-11-09T08:39:19.853Z,72.60
2017-11-09T08:41:47.421Z,61.08
2017-11-09T08:44:15.013Z,64.70
2017-11-09T08:46:42.555Z,62.78
2017-11-09T08:49:10.104Z,63.97
2017-11-09T08:51:37.629Z,68.18
2017-11-09T08:54:05.214Z,65.25
2017-11-09T08:56:33.473Z,62.60
2017-11-09T08:59:00.995Z,62.58
2017-11-09T09:01:28.517Z,67.68
2017-11-09T09:03:56.051Z,70.30
2017-11-09T09:06:23.601Z,68.35
2017-11-09T09:08:51.249Z,66.62
2017-11-09T09:11:18.919Z,74.25
2017-11-09T09:13:46.435Z,73.87
2017-11-09T09:16:13.973Z,69.87
2017-11-09T09:18:42.366Z,70.30
2017-11-09T09:24:33.661Z,71.50
2017-11-09T09:27:21.432Z,70.57
2017-11-09T09:29:55.142Z,70.05
2017-11-09T09:32:42.654Z,68.50
2017-11-09T09:35:18.934Z,72.53
2017-11-09T09:37:50.333Z,69.15
2017-11-09T09:40:28.375Z,71.50
2017-11-09T09:42:58.574Z,77.97
2017-11-09T09:45:27.654Z,72.90
2017-11-09T09:47:56.145Z,75.95
2017-11-09T09:50:24.194Z,78.40
2017-11-09T09:52:53.398Z,77.45
2017-11-09T09:55:21.306Z,75.57
2017-11-09T09:57:49.255Z,80.55
2017-11-09T10:00:18.151Z,76.32
2017-11-09T10:02:46.012Z,75.15
2017-11-09T10:05:15.182Z,82.57
2017-11-09T10:07:44.110Z,79.30
2017-11-09T10:10:12.281Z,69.68
2017-11-09T10:12:40.309Z,77.82
2017-11-09T10:15:08.833Z,75.22
2017-11-09T10:17:37.112Z,79.60
2017-11-09T10:20:05.585Z,84.53
2017-11-09T10:22:33.927Z,78.85
2017-11-09T10:25:06.266Z,84.05
2017-11-09T10:27:34.857Z,88.25
2017-11-09T10:30:03.696Z,81.78
2017-11-09T10:32:32.293Z,81.43
2017-11-09T10:35:07.330Z,81.90
2017-11-09T10:37:46.586Z,76.90
2017-11-09T10:40:21.441Z,85.12
2017-11-09T10:42:49.430Z,80.70
2017-11-09T10:45:19.489Z,90.12
2017-11-09T10:47:52.673Z,92.82
2017-11-09T10:50:32.715Z,88.25
2017-11-09T10:55:41.444Z,96.80
2017-11-09T10:58:10.294Z,87.18
2017-11-09T11:00:44.194Z,91.65
2017-11-09T11:03:13.144Z,96.32
2017-11-09T11:05:41.216Z,97.68
2017-11-09T11:08:09.717Z,93.00
2017-11-09T11:10:38.308Z,97.37
2017-11-09T11:13:07.983Z,105.12
2017-11-09T11:15:37.220Z,97.25
2017-11-09T11:18:05.018Z,104.38
2017-11-09T11:20:34.173Z,102.03
2017-11-09T11:23:03.862Z,99.10
2017-11-09T11:25:32.365Z,97.95
2017-11-09T11:28:00.413Z,95.32
2017-11-09T11:30:28.800Z,89.50
2017-11-09T11:32:56.684Z,94.57
2017-11-09T11:35:25.243Z,98.22
2017-11-09T11:37:53.640Z,84.45
2017-11-09T11:40:21.479Z,89.47
2017-11-09T11:42:54.596Z,90.95
2017-11-09T11:45:24.522Z,84.50
2017-11-09T11:48:03.372Z,89.18
2017-11-09T11:50:35.396Z,86.68
2017-11-09T11:53:05.279Z,89.40
2017-11-09T11:55:33.286Z,81.50
2017-11-09T11:58:01.807Z,82.78
2017-11-09T12:00:32.810Z,86.85
2017-11-09T12:03:02.722Z,85.78
2017-11-09T12:05:34.369Z,81.85
2017-11-09T12:08:05.631Z,80.03
2017-11-09T12:10:36.199Z,71.75
2017-11-09T12:13:08.732Z,77.15
2017-11-09T12:15:36.960Z,85.30
2017-11-09T12:18:15.876Z,87.05
2017-11-09T12:20:52.895Z,80.38
2017-11-09T12:23:26.464Z,77.22
2017-11-09T12:28:33.864Z,75.50
2017-11-09T12:31:04.743Z,91.78
2017-11-09T12:33:34.878Z,81.22
2017-11-09T12:36:03.927Z,79.40
2017-11-09T12:38:33.059Z,81.05
2017-11-09T12:41:04.189Z,76.90
2017-11-09T12:43:36.739Z,79.15
2017-11-09T12:46:05.653Z,77.95
2017-11-09T12:48:34.202Z,73.78
2017-11-09T12:51:02.491Z,82.20
2017-11-09T12:53:31.221Z,83.45
2017-11-09T12:55:59.241Z,76.07
2017-11-09T13:01:01.398Z,82.57
2017-11-09T13:03:29.794Z,76.45
2017-11-09T13:05:57.707Z,77.60
2017-11-09T13:08:26.163Z,82.70
2017-11-09T13:10:55.262Z,78.12
2017-11-09T13:13:23.529Z,76.65
2017-11-09T13:15:51.346Z,79.70
2017-11-09T13:18:19.667Z,81.97
2017-11-09T13:20:47.865Z,81.97
2017-11-09T13:23:15.612Z,77.28
2017-11-09T13:25:44.404Z,86.47
2017-11-09T13:28:12.582Z,85.25
2017-11-09T13:30:41.165Z,77.05
2017-11-09T13:33:09.103Z,74.28
2017-11-09T13:35:36.984Z,75.15
2017-11-09T13:38:05.672Z,83.60
2017-11-09T13:40:34.006Z,78.53
2017-11-09T13:43:04.535Z,81.12
2017-11-09T13:45:33.312Z,75.10
2017-11-09T13:48:01.874Z,78.72
2017-11-09T13:50:29.824Z,79.90
2017-11-09T13:52:57.667Z,77.03
2017-11-09T13:55:30.451Z,74.72
2017-11-09T13:58:01.926Z,80.72
2017-11-09T14:00:29.910Z,87.18
2017-11-09T14:02:58.188Z,79.75
2017-11-09T14:05:26.361Z,84.53
2017-11-09T14:07:55.461Z,90.10
2017-11-09T14:10:23.578Z,80.43
2017-11-09T14:12:52.284Z,80.28
2017-11-09T14:15:20.509Z,86.90
2017-11-09T14:17:48.417Z,97.10
2017-11-09T14:20:16.314Z,95.65
2017-11-09T14:22:44.185Z,94.70
2017-11-09T14:25:12.324Z,96.68
2017-11-09T14:27:40.166Z,95.68
2017-11-09T14:30:08.161Z,103.22
2017-11-09T14:32:38.107Z,98.30
2017-11-09T14:35:05.847Z,106.78
2017-11-09T14:37:34.183Z,94.82
2017-11-09T14:40:04.119Z,97.97
2017-11-09T14:42:33.327Z,86.85
2017-11-09T14:45:01.230Z,92.88
2017-11-09T14:47:32.487Z,94.05
2017-11-09T14:50:00.561Z,94.22
2017-11-09T14:52:29.344Z,90.47
2017-11-09T14:54:58.738Z,88.57
2017-11-09T14:57:27.978Z,91.65
2017-11-09T14:59:56.659Z,85.40
2017-11-09T15:02:24.385Z,88.97
2017-11-09T15:04:53.262Z,95.65
2017-11-09T15:07:22.032Z,83.07
2017-11-09T15:09:49.935Z,91.00
2017-11-09T15:12:18.874Z,85.43
2017-11-09T15:14:47.527Z,88.75
2017-11-09T15:17:16.622Z,106.03
2017-11-09T15:19:44.860Z,97.10
2017-11-09T15:22:12.699Z,107.82
2017-11-09T15:24:51.003Z,97.72
2017-11-09T15:27:19.016Z,94.97
2017-11-09T15:29:47.021Z,97.60
2017-11-09T15:32:14.962Z,97.95
2017-11-09T15:34:43.040Z,103.28
2017-11-09T15:37:11.498Z,99.75
2017-11-09T15:39:40.056Z,102.35
2017-11-09T15:42:08.755Z,95.12
2017-11-09T15:44:36.651Z,106.50
2017-11-09T15:47:04.604Z,101.72
2017-11-09T15:49:33.676Z,100.95
2017-11-09T15:52:02.069Z,113.03
2017-11-09T15:54:32.685Z,107.22
2017-11-09T15:57:00.777Z,100.18
2017-11-09T16:02:01.469Z,108.80
2017-11-09T16:04:29.378Z,107.85
2017-11-09T16:07:01.588Z,108.60
2017-11-09T16:09:29.648Z,106.82
2017-11-09T16:11:57.697Z,103.03
2017-11-09T16:14:26.257Z,104.18
2017-11-09T16:16:57.902Z,101.40
2017-11-09T16:19:26.937Z,104.90
2017-11-09T16:21:54.887Z,95.40
2017-11-09T16:24:23.374Z,93.55
2017-11-09T16:26:57.645Z,97.35
2017-11-09T16:29:26.622Z,85.57
2017-11-09T16:31:57.768Z,93.78
2017-11-09T16:34:26.880Z,90.95
2017-11-09T16:36:57.879Z,94.93
2017-11-09T16:39:28.998Z,96.00
2017-11-09T16:41:57.182Z,88.22
2017-11-09T16:44:38.598Z,83.25
2017-11-09T16:47:10.588Z,90.53
2017-11-09T16:52:29.512Z,83.40
2017-11-09T16:54:59.852Z,89.95
2017-11-09T16:57:29.379Z,86.78
2017-11-09T17:00:01.584Z,87.35
2017-11-09T17:02:30.161Z,81.53
2017-11-09T17:07:35.794Z,81.50
2017-11-09T17:10:05.408Z,83.43
2017-11-09T17:12:45.435Z,81.07
2017-11-09T17:15:17.798Z,86.80
2017-11-09T17:17:46.107Z,82.47
2017-11-09T17:20:14.099Z,83.70
2017-11-09T17:22:42.409Z,80.30
2017-11-09T17:25:13.160Z,80.93
2017-11-09T17:27:42.621Z,79.25
2017-11-09T17:30:12.601Z,85.05
2017-11-09T17:32:42.720Z,88.90
2017-11-09T17:35:14.400Z,84.28
2017-11-09T17:37:42.722Z,86.03
2017-11-09T17:40:12.262Z,84.85
2017-11-09T17:42:42.286Z,82.47
2017-11-09T17:45:12.132Z,86.53
2017-11-09T17:47:41.052Z,86.60
2017-11-09T17:50:10.648Z,85.20
2017-11-09T17:52:38.981Z,82.45
2017-11-09T17:55:06.841Z,82.22
2017-11-09T17:57:34.652Z,91.95
2017-11-09T18:00:07.863Z,82.40
2017-11-09T18:02:35.448Z,88.22
2017-11-09T18:05:03.310Z,78.87
2017-11-09T18:07:31.170Z,85.05
2017-11-09T18:09:59.261Z,73.97
2017-11-09T18:12:26.866Z,78.68
2017-11-09T18:14:55.240Z,77.28
2017-11-09T18:17:24.022Z,86.18
2017-11-09T18:19:51.603Z,81.03
2017-11-09T18:22:19.512Z,85.05
2017-11-09T18:24:49.953Z,78.20
2017-11-09T18:27:17.584Z,87.15
2017-11-09T18:29:45.337Z,90.20
2017-11-09T18:32:12.984Z,81.85
2017-11-09T18:34:40.763Z,89.22
2017-11-09T18:37:08.712Z,81.32
2017-11-09T18:39:36.365Z,93.53
2017-11-09T18:42:04.174Z,73.45
2017-11-09T18:44:31.729Z,74.80
2017-11-09T18:47:00.682Z,79.95
2017-11-09T18:49:28.386Z,80.38
2017-11-09T18:51:55.991Z,81.60
2017-11-09T18:54:24.361Z,82.88
2017-11-09T18:56:51.942Z,90.72
2017-11-09T18:59:19.590Z,79.40
2017-11-09T19:01:47.563Z,84.37
2017-11-09T19:04:16.858Z,78.07
2017-11-09T19:06:48.003Z,84.90
2017-11-09T19:09:22.088Z,80.47
2017-11-09T19:11:49.984Z,80.70
2017-11-09T19:14:17.788Z,88.43
2017-11-09T19:16:45.652Z,79.47
2017-11-09T19:19:14.543Z,78.30
2017-11-09T19:21:44.149Z,86.07
2017-11-09T19:24:11.705Z,78.70
2017-11-09T19:26:39.825Z,78.82
2017-11-09T19:29:08.433Z,80.03
2017-11-09T19:31:37.193Z,76.20
2017-11-09T19:34:05.122Z,78.60
2017-11-09T19:36:32.872Z,78.28
2017-11-09T19:39:02.027Z,77.05
2017-11-09T19:41:30.448Z,79.70
2017-11-09T19:44:00.130Z,76.18
2017-11-09T19:46:28.134Z,81.00
2017-11-09T19:48:55.705Z,85.75
2017-11-09T19:51:24.532Z,83.78
2017-11-09T19:53:52.051Z,85.68
2017-11-09T19:56:19.663Z,84.93
2017-11-09T19:58:48.649Z,85.18
2017-11-09T20:01:16.167Z,85.10
2017-11-09T20:03:43.913Z,87.60
2017-11-09T20:06:12.393Z,85.60
2017-11-09T20:08:40.127Z,83.22
2017-11-09T20:11:11.013Z,86.30
2017-11-09T20:13:38.820Z,82.47
2017-11-09T20:16:07.029Z,79.12
2017-11-09T20:18:37.129Z,88.40
2017-11-09T20:21:08.564Z,83.32
2017-11-09T20:23:36.285Z,74.53
2017-11-09T20:26:04.095Z,78.10
2017-11-09T20:28:31.767Z,92.75
2017-11-09T20:30:59.567Z,87.75
2017-11-09T20:33:27.625Z,87.22
2017-11-09T20:35:55.409Z,81.12
2017-11-09T20:38:22.996Z,79.28
2017-11-09T20:40:50.585Z,90.10
2017-11-09T20:43:18.094Z,88.15
2017-11-09T20:45:45.714Z,81.72
2017-11-09T20:48:13.307Z,86.15
2017-11-09T20:50:40.875Z,80.85
2017-11-09T20:53:08.559Z,74.70
2017-11-09T20:55:36.180Z,75.60
2017-11-09T20:58:03.723Z,81.55
2017-11-09T21:00:31.369Z,76.55
2017-11-09T21:02:59.094Z,77.35
2017-11-09T21:05:26.627Z,79.28
2017-11-09T21:07:54.172Z,72.28
2017-11-09T21:10:22.624Z,83.53
2017-11-09T21:12:50.184Z,80.07
2017-11-09T21:15:21.842Z,76.62
2017-11-09T21:17:53.232Z,87.80
2017-11-09T21:23:00.387Z,89.45
2017-11-09T21:25:27.992Z,94.22
2017-11-09T21:27:55.833Z,89.87
2017-11-09T21:30:23.528Z,87.70
2017-11-09T21:32:53.648Z,82.90
2017-11-09T21:35:23.727Z,85.65
2017-11-09T21:37:51.661Z,80.95
2017-11-09T21:40:20.412Z,81.68
2017-11-09T21:42:48.431Z,82.18
2017-11-09T21:45:16.025Z,76.95
2017-11-09T21:47:43.831Z,79.37
2017-11-09T21:50:11.505Z,77.87
2017-11-09T21:52:39.103Z,75.25
2017-11-09T21:55:07.987Z,72.37
2017-11-09T21:57:35.691Z,72.53
2017-11-09T22:00:05.060Z,73.03
2017-11-09T22:02:33.154Z,72.80
2017-11-09T22:05:02.232Z,71.72
2017-11-09T22:07:30.396Z,74.30
2017-11-09T22:09:57.961Z,73.22
2017-11-09T22:12:25.928Z,67.75
2017-11-09T22:14:53.895Z,68.37
2017-11-09T22:17:22.412Z,60.40
2017-11-09T22:19:50.962Z,62.83
2017-11-09T22:22:18.682Z,68.87
2017-11-09T22:24:46.347Z,61.40
2017-11-09T22:27:14.197Z,63.00
2017-11-09T22:29:41.836Z,62.08
2017-11-09T22:32:09.504Z,56.75
2017-11-09T22:34:37.211Z,60.42
2017-11-09T22:37:08.332Z,49.67
2017-11-09T22:42:34.909Z,59.60
2017-11-09T22:45:02.531Z,51.63
2017-11-09T22:47:31.807Z,56.37
2017-11-09T22:50:00.156Z,53.25
2017-11-09T22:52:27.711Z,53.22
2017-11-09T22:54:55.217Z,46.25
2017-11-09T22:57:22.766Z,51.53
2017-11-09T22:59:50.308Z,54.90
2017-11-09T23:02:17.856Z,46.47
2017-11-09T23:04:45.723Z,47.92
2017-11-09T23:07:13.355Z,41.60
2017-11-09T23:09:41.254Z,46.97
2017-11-09T23:12:15.436Z,45.78
2017-11-09T23:14:43.982Z,42.65
2017-11-09T23:17:11.511Z,44.83
2017-11-09T23:19:39.109Z,39.47
2017-11-09T23:22:06.661Z,41.85
2017-11-09T23:24:34.278Z,47.83
2017-11-09T23:27:01.808Z,46.40
2017-11-09T23:29:29.316Z,45.45
2017-11-09T23:31:56.882Z,48.35
2017-11-09T23:34:24.414Z,49.70
2017-11-09T23:36:51.924Z,50.72
2017-11-09T23:39:19.474Z,47.30
2017-11-09T23:41:47.111Z,42.50
2017-11-09T23:44:15.392Z,41.10
2017-11-09T23:46:42.910Z,40.40
2017-11-09T23:49:10.415Z,40.20
2017-11-09T23:51:38.723Z,37.63
2017-11-09T23:54:06.284Z,38.55
2017-11-09T23:56:33.783Z,37.30
2017-11-09T23:59:01.353Z,41.63
